Main page
METAR-TAF:

METAR-TAF

Airports :

Reykjavík, Iceland

Reykjavík Airport

latitude: 64-08N, longitude: 021-54W, elevation: 54 m

Current weather observation

The report was made 27 minutes ago, at 16:00 UTC
Wind 6 kt from the North/Northwest
Temperature 6°C
Humidity 70%
Pressure 999 hPa
Visibility 10 km or more
Few clouds at a height of 2900 ft
Broken clouds at a height of 3300 ft
Overcast at a height of 4100 ft
light drizzle, rain

METAR: BIRK 251600Z 33006KT 9999 -DZRA FEW029 BKN033 OVC041 06/01 Q0999

Time: 16:27 (16:27 UTC)

Forecast

The report was made 2 hours and 42 minutes ago, at 13:45 UTC
Forecast valid from 25 at 15 UTC to 26 at 15 UTC
Wind 8 kt from the East
Visibility 10 km or more
Few clouds at a height of 2500 ft
Broken clouds at a height of 3000 ft
Overcast at a height of 5000 ft
light rain

TAF: BIRK 251345Z 2515/2615 08008KT 9999 -RA FEW025 BKN030 OVC050 TX07/2515Z TN01/2606Z

Weather observations and forecasts of more than 4000 airports (METAR and TAF reports).

The available stations are represented by yellow and red dots on the map.

Hover mouse over dot to see the name of the station.

Then click to see weather observations and forecasts.

To change the map : click on the green buttons with a black cross to zoom in, on the green button with a dash to zoom out, or on the green arrows for adjacent maps.


METAR-TAF: